sensor_id;sensor_type;location;lat;lon;timestamp;P1;durP1;ratioP1;P2;durP2;ratioP2
20669;SDS011;10494;50.868;4.180;2024-03-07T00:02:17;13.63;;;8.03;;
20669;SDS011;10494;50.868;4.180;2024-03-07T00:04:43;13.70;;;8.33;;
20669;SDS011;10494;50.868;4.180;2024-03-07T00:07:09;13.03;;;8.23;;
20669;SDS011;10494;50.868;4.180;2024-03-07T00:09:35;13.53;;;8.10;;
20669;SDS011;10494;50.868;4.180;2024-03-07T00:12:01;14.00;;;8.73;;
20669;SDS011;10494;50.868;4.180;2024-03-07T00:14:27;10.77;;;7.33;;
20669;SDS011;10494;50.868;4.180;2024-03-07T00:16:53;14.17;;;9.30;;
20669;SDS011;10494;50.868;4.180;2024-03-07T00:19:22;15.60;;;8.97;;
20669;SDS011;10494;50.868;4.180;2024-03-07T00:21:58;14.97;;;8.90;;
20669;SDS011;10494;50.868;4.180;2024-03-07T00:24:24;15.63;;;8.80;;
20669;SDS011;10494;50.868;4.180;2024-03-07T00:26:49;13.63;;;8.83;;
20669;SDS011;10494;50.868;4.180;2024-03-07T00:29:16;18.10;;;8.53;;
20669;SDS011;10494;50.868;4.180;2024-03-07T00:31:45;15.13;;;9.43;;
20669;SDS011;10494;50.868;4.180;2024-03-07T00:34:14;15.37;;;9.30;;
20669;SDS011;10494;50.868;4.180;2024-03-07T00:36:43;16.70;;;10.30;;
20669;SDS011;10494;50.868;4.180;2024-03-07T00:39:09;14.57;;;8.70;;
20669;SDS011;10494;50.868;4.180;2024-03-07T00:41:37;15.77;;;9.00;;
20669;SDS011;10494;50.868;4.180;2024-03-07T00:44:06;15.10;;;9.10;;
20669;SDS011;10494;50.868;4.180;2024-03-07T00:46:34;15.90;;;9.47;;
20669;SDS011;10494;50.868;4.180;2024-03-07T00:49:02;15.30;;;9.50;;
20669;SDS011;10494;50.868;4.180;2024-03-07T00:51:28;17.37;;;10.33;;
20669;SDS011;10494;50.868;4.180;2024-03-07T00:53:54;16.30;;;10.17;;
20669;SDS011;10494;50.868;4.180;2024-03-07T00:56:21;18.33;;;10.43;;
20669;SDS011;10494;50.868;4.180;2024-03-07T00:58:47;23.37;;;11.30;;
20669;SDS011;10494;50.868;4.180;2024-03-07T01:01:13;19.17;;;11.90;;
20669;SDS011;10494;50.868;4.180;2024-03-07T01:03:41;18.17;;;10.73;;
20669;SDS011;10494;50.868;4.180;2024-03-07T01:06:07;22.00;;;12.33;;
20669;SDS011;10494;50.868;4.180;2024-03-07T01:08:34;24.20;;;13.10;;
20669;SDS011;10494;50.868;4.180;2024-03-07T01:11:01;31.93;;;16.67;;
20669;SDS011;10494;50.868;4.180;2024-03-07T01:13:34;36.30;;;17.97;;
20669;SDS011;10494;50.868;4.180;2024-03-07T01:16:08;36.33;;;19.43;;
20669;SDS011;10494;50.868;4.180;2024-03-07T01:18:34;34.93;;;17.03;;
20669;SDS011;10494;50.868;4.180;2024-03-07T01:21:03;34.13;;;18.87;;
20669;SDS011;10494;50.868;4.180;2024-03-07T01:23:30;38.17;;;18.13;;
20669;SDS011;10494;50.868;4.180;2024-03-07T01:25:57;35.43;;;17.07;;
20669;SDS011;10494;50.868;4.180;2024-03-07T01:28:24;38.07;;;18.43;;
20669;SDS011;10494;50.868;4.180;2024-03-07T01:30:50;34.97;;;17.23;;
20669;SDS011;10494;50.868;4.180;2024-03-07T01:33:17;37.13;;;17.80;;
20669;SDS011;10494;50.868;4.180;2024-03-07T01:35:44;34.17;;;16.90;;
20669;SDS011;10494;50.868;4.180;2024-03-07T01:38:10;29.93;;;16.03;;
20669;SDS011;10494;50.868;4.180;2024-03-07T01:40:36;35.70;;;18.90;;
20669;SDS011;10494;50.868;4.180;2024-03-07T01:43:02;32.80;;;17.07;;
20669;SDS011;10494;50.868;4.180;2024-03-07T01:45:28;33.53;;;17.77;;
20669;SDS011;10494;50.868;4.180;2024-03-07T01:47:54;39.23;;;18.27;;
20669;SDS011;10494;50.868;4.180;2024-03-07T01:50:20;33.57;;;17.00;;
20669;SDS011;10494;50.868;4.180;2024-03-07T01:52:46;39.30;;;19.27;;
20669;SDS011;10494;50.868;4.180;2024-03-07T01:55:13;35.00;;;16.90;;
20669;SDS011;10494;50.868;4.180;2024-03-07T01:57:39;35.57;;;18.07;;
20669;SDS011;10494;50.868;4.180;2024-03-07T02:00:05;36.40;;;19.03;;
20669;SDS011;10494;50.868;4.180;2024-03-07T02:02:32;41.70;;;20.50;;
20669;SDS011;10494;50.868;4.180;2024-03-07T02:04:58;42.80;;;21.20;;
20669;SDS011;10494;50.868;4.180;2024-03-07T02:07:24;50.30;;;22.50;;
20669;SDS011;10494;50.868;4.180;2024-03-07T02:09:58;44.90;;;21.97;;
20669;SDS011;10494;50.868;4.180;2024-03-07T02:12:24;40.63;;;20.13;;
20669;SDS011;10494;50.868;4.180;2024-03-07T02:14:50;45.63;;;21.60;;
20669;SDS011;10494;50.868;4.180;2024-03-07T02:17:15;48.90;;;22.73;;
20669;SDS011;10494;50.868;4.180;2024-03-07T02:19:41;49.63;;;24.27;;
20669;SDS011;10494;50.868;4.180;2024-03-07T02:22:07;49.30;;;25.20;;
20669;SDS011;10494;50.868;4.180;2024-03-07T02:24:32;57.10;;;26.63;;
20669;SDS011;10494;50.868;4.180;2024-03-07T02:26:58;55.57;;;25.13;;
20669;SDS011;10494;50.868;4.180;2024-03-07T02:29:24;49.03;;;24.93;;
20669;SDS011;10494;50.868;4.180;2024-03-07T02:31:50;48.87;;;22.50;;
20669;SDS011;10494;50.868;4.180;2024-03-07T02:34:16;55.07;;;25.33;;
20669;SDS011;10494;50.868;4.180;2024-03-07T02:36:43;53.97;;;24.97;;
20669;SDS011;10494;50.868;4.180;2024-03-07T02:39:08;53.23;;;25.63;;
20669;SDS011;10494;50.868;4.180;2024-03-07T02:41:34;60.07;;;26.60;;
20669;SDS011;10494;50.868;4.180;2024-03-07T02:44:00;59.67;;;26.57;;
20669;SDS011;10494;50.868;4.180;2024-03-07T02:46:28;65.00;;;27.87;;
20669;SDS011;10494;50.868;4.180;2024-03-07T02:48:54;63.40;;;28.33;;
20669;SDS011;10494;50.868;4.180;2024-03-07T02:51:20;57.47;;;27.97;;
20669;SDS011;10494;50.868;4.180;2024-03-07T02:53:45;62.50;;;28.13;;
20669;SDS011;10494;50.868;4.180;2024-03-07T02:56:11;60.73;;;26.93;;
20669;SDS011;10494;50.868;4.180;2024-03-07T02:58:36;73.27;;;30.27;;
20669;SDS011;10494;50.868;4.180;2024-03-07T03:01:02;62.17;;;28.63;;
20669;SDS011;10494;50.868;4.180;2024-03-07T03:03:28;66.30;;;30.67;;
20669;SDS011;10494;50.868;4.180;2024-03-07T03:05:57;63.83;;;29.50;;
20669;SDS011;10494;50.868;4.180;2024-03-07T03:08:24;72.30;;;31.97;;
20669;SDS011;10494;50.868;4.180;2024-03-07T03:10:50;77.50;;;32.73;;
20669;SDS011;10494;50.868;4.180;2024-03-07T03:13:18;77.07;;;33.50;;
20669;SDS011;10494;50.868;4.180;2024-03-07T03:15:44;74.33;;;32.27;;
20669;SDS011;10494;50.868;4.180;2024-03-07T03:18:10;81.27;;;35.13;;
20669;SDS011;10494;50.868;4.180;2024-03-07T03:20:37;77.10;;;33.83;;
20669;SDS011;10494;50.868;4.180;2024-03-07T03:23:08;76.03;;;34.00;;
20669;SDS011;10494;50.868;4.180;2024-03-07T03:25:38;79.83;;;34.00;;
20669;SDS011;10494;50.868;4.180;2024-03-07T03:28:04;84.90;;;35.60;;
20669;SDS011;10494;50.868;4.180;2024-03-07T03:30:31;80.30;;;34.83;;
20669;SDS011;10494;50.868;4.180;2024-03-07T03:32:57;82.80;;;33.30;;
20669;SDS011;10494;50.868;4.180;2024-03-07T03:35:24;82.73;;;35.50;;
20669;SDS011;10494;50.868;4.180;2024-03-07T03:37:49;91.10;;;36.47;;
20669;SDS011;10494;50.868;4.180;2024-03-07T03:40:15;87.67;;;36.47;;
20669;SDS011;10494;50.868;4.180;2024-03-07T03:42:41;80.23;;;34.87;;
20669;SDS011;10494;50.868;4.180;2024-03-07T03:45:08;83.00;;;35.97;;
20669;SDS011;10494;50.868;4.180;2024-03-07T03:47:35;82.17;;;35.43;;
20669;SDS011;10494;50.868;4.180;2024-03-07T03:50:04;78.80;;;34.80;;
20669;SDS011;10494;50.868;4.180;2024-03-07T03:52:31;79.93;;;36.00;;
20669;SDS011;10494;50.868;4.180;2024-03-07T03:54:57;89.67;;;36.20;;
20669;SDS011;10494;50.868;4.180;2024-03-07T03:57:24;91.77;;;39.80;;
20669;SDS011;10494;50.868;4.180;2024-03-07T03:59:53;94.80;;;39.63;;
20669;SDS011;10494;50.868;4.180;2024-03-07T04:02:19;90.30;;;39.73;;
20669;SDS011;10494;50.868;4.180;2024-03-07T04:04:47;89.50;;;37.73;;
20669;SDS011;10494;50.868;4.180;2024-03-07T04:07:13;91.27;;;40.10;;
20669;SDS011;10494;50.868;4.180;2024-03-07T04:09:41;87.07;;;38.37;;
20669;SDS011;10494;50.868;4.180;2024-03-07T04:12:07;93.57;;;38.60;;
20669;SDS011;10494;50.868;4.180;2024-03-07T04:14:35;98.83;;;40.73;;
20669;SDS011;10494;50.868;4.180;2024-03-07T04:17:02;92.60;;;39.90;;
20669;SDS011;10494;50.868;4.180;2024-03-07T04:19:29;96.40;;;39.73;;
20669;SDS011;10494;50.868;4.180;2024-03-07T04:21:56;94.13;;;39.30;;
20669;SDS011;10494;50.868;4.180;2024-03-07T04:24:22;99.40;;;39.50;;
20669;SDS011;10494;50.868;4.180;2024-03-07T04:26:47;98.87;;;39.70;;
20669;SDS011;10494;50.868;4.180;2024-03-07T04:29:13;89.80;;;38.47;;
20669;SDS011;10494;50.868;4.180;2024-03-07T04:31:39;93.40;;;38.93;;
20669;SDS011;10494;50.868;4.180;2024-03-07T04:34:04;99.17;;;40.90;;
20669;SDS011;10494;50.868;4.180;2024-03-07T04:36:30;92.93;;;40.40;;
20669;SDS011;10494;50.868;4.180;2024-03-07T04:38:57;96.60;;;39.17;;
20669;SDS011;10494;50.868;4.180;2024-03-07T04:41:23;100.20;;;39.93;;
20669;SDS011;10494;50.868;4.180;2024-03-07T04:43:49;105.10;;;40.20;;
20669;SDS011;10494;50.868;4.180;2024-03-07T04:46:14;104.27;;;41.07;;
20669;SDS011;10494;50.868;4.180;2024-03-07T04:48:40;102.83;;;39.97;;
20669;SDS011;10494;50.868;4.180;2024-03-07T04:51:07;102.53;;;39.73;;
20669;SDS011;10494;50.868;4.180;2024-03-07T04:53:33;100.00;;;39.57;;
20669;SDS011;10494;50.868;4.180;2024-03-07T04:56:02;96.53;;;38.17;;
20669;SDS011;10494;50.868;4.180;2024-03-07T04:58:28;98.37;;;39.93;;
20669;SDS011;10494;50.868;4.180;2024-03-07T05:00:53;101.77;;;37.93;;
20669;SDS011;10494;50.868;4.180;2024-03-07T05:03:19;95.17;;;38.20;;
20669;SDS011;10494;50.868;4.180;2024-03-07T05:05:44;110.57;;;41.80;;
20669;SDS011;10494;50.868;4.180;2024-03-07T05:08:10;110.27;;;41.00;;
20669;SDS011;10494;50.868;4.180;2024-03-07T05:10:37;103.23;;;41.50;;
20669;SDS011;10494;50.868;4.180;2024-03-07T05:13:02;102.97;;;39.33;;
20669;SDS011;10494;50.868;4.180;2024-03-07T05:15:30;110.13;;;42.33;;
20669;SDS011;10494;50.868;4.180;2024-03-07T05:17:55;102.60;;;38.40;;
20669;SDS011;10494;50.868;4.180;2024-03-07T05:20:21;105.50;;;41.33;;
20669;SDS011;10494;50.868;4.180;2024-03-07T05:22:47;105.97;;;37.63;;
20669;SDS011;10494;50.868;4.180;2024-03-07T05:25:15;108.43;;;39.07;;
20669;SDS011;10494;50.868;4.180;2024-03-07T05:27:44;108.40;;;40.63;;
20669;SDS011;10494;50.868;4.180;2024-03-07T05:30:10;107.10;;;41.70;;
20669;SDS011;10494;50.868;4.180;2024-03-07T05:32:38;113.30;;;40.90;;
20669;SDS011;10494;50.868;4.180;2024-03-07T05:35:04;121.83;;;42.70;;
20669;SDS011;10494;50.868;4.180;2024-03-07T05:37:31;118.87;;;43.27;;
20669;SDS011;10494;50.868;4.180;2024-03-07T05:39:56;131.10;;;44.40;;
20669;SDS011;10494;50.868;4.180;2024-03-07T05:42:22;131.87;;;44.57;;
20669;SDS011;10494;50.868;4.180;2024-03-07T05:44:50;134.77;;;45.40;;
20669;SDS011;10494;50.868;4.180;2024-03-07T05:47:15;140.13;;;45.73;;
20669;SDS011;10494;50.868;4.180;2024-03-07T05:49:42;138.17;;;44.70;;
20669;SDS011;10494;50.868;4.180;2024-03-07T05:52:08;138.60;;;45.57;;
20669;SDS011;10494;50.868;4.180;2024-03-07T05:54:34;135.97;;;45.10;;
20669;SDS011;10494;50.868;4.180;2024-03-07T05:57:00;141.57;;;46.23;;
20669;SDS011;10494;50.868;4.180;2024-03-07T05:59:26;154.23;;;47.97;;
20669;SDS011;10494;50.868;4.180;2024-03-07T06:01:58;144.67;;;44.17;;
20669;SDS011;10494;50.868;4.180;2024-03-07T06:04:24;138.30;;;45.07;;
20669;SDS011;10494;50.868;4.180;2024-03-07T06:06:50;152.50;;;47.00;;
20669;SDS011;10494;50.868;4.180;2024-03-07T06:09:16;146.60;;;44.80;;
20669;SDS011;10494;50.868;4.180;2024-03-07T06:11:46;150.30;;;46.03;;
20669;SDS011;10494;50.868;4.180;2024-03-07T06:14:12;142.07;;;45.43;;
20669;SDS011;10494;50.868;4.180;2024-03-07T06:16:38;148.20;;;47.57;;
20669;SDS011;10494;50.868;4.180;2024-03-07T06:19:05;152.07;;;47.77;;
20669;SDS011;10494;50.868;4.180;2024-03-07T06:21:38;151.90;;;46.40;;
20669;SDS011;10494;50.868;4.180;2024-03-07T06:24:05;149.30;;;47.13;;
20669;SDS011;10494;50.868;4.180;2024-03-07T06:26:32;157.30;;;46.47;;
20669;SDS011;10494;50.868;4.180;2024-03-07T06:29:05;148.93;;;47.47;;
20669;SDS011;10494;50.868;4.180;2024-03-07T06:31:31;151.57;;;47.97;;
20669;SDS011;10494;50.868;4.180;2024-03-07T06:33:57;148.10;;;47.53;;
20669;SDS011;10494;50.868;4.180;2024-03-07T06:36:23;151.43;;;47.13;;
20669;SDS011;10494;50.868;4.180;2024-03-07T06:38:50;150.20;;;46.23;;
20669;SDS011;10494;50.868;4.180;2024-03-07T06:41:16;151.13;;;48.40;;
20669;SDS011;10494;50.868;4.180;2024-03-07T06:43:43;140.33;;;44.93;;
20669;SDS011;10494;50.868;4.180;2024-03-07T06:46:09;140.53;;;43.73;;
20669;SDS011;10494;50.868;4.180;2024-03-07T06:48:35;147.17;;;44.13;;
20669;SDS011;10494;50.868;4.180;2024-03-07T06:51:01;149.87;;;45.80;;
20669;SDS011;10494;50.868;4.180;2024-03-07T06:53:27;141.87;;;45.23;;
20669;SDS011;10494;50.868;4.180;2024-03-07T06:55:53;141.70;;;45.27;;
20669;SDS011;10494;50.868;4.180;2024-03-07T06:58:20;132.50;;;45.13;;
20669;SDS011;10494;50.868;4.180;2024-03-07T07:00:45;149.27;;;45.80;;
20669;SDS011;10494;50.868;4.180;2024-03-07T07:03:11;138.20;;;44.87;;
20669;SDS011;10494;50.868;4.180;2024-03-07T07:05:39;135.13;;;45.27;;
20669;SDS011;10494;50.868;4.180;2024-03-07T07:08:05;145.27;;;45.27;;
20669;SDS011;10494;50.868;4.180;2024-03-07T07:10:31;128.93;;;41.20;;
20669;SDS011;10494;50.868;4.180;2024-03-07T07:12:57;138.80;;;45.23;;
20669;SDS011;10494;50.868;4.180;2024-03-07T07:15:23;131.77;;;43.67;;
20669;SDS011;10494;50.868;4.180;2024-03-07T07:17:49;133.07;;;46.33;;
20669;SDS011;10494;50.868;4.180;2024-03-07T07:20:18;126.40;;;42.83;;
20669;SDS011;10494;50.868;4.180;2024-03-07T07:22:45;133.73;;;42.50;;
20669;SDS011;10494;50.868;4.180;2024-03-07T07:25:12;142.57;;;44.53;;
20669;SDS011;10494;50.868;4.180;2024-03-07T07:27:46;136.37;;;43.47;;
20669;SDS011;10494;50.868;4.180;2024-03-07T07:30:13;126.07;;;41.77;;
20669;SDS011;10494;50.868;4.180;2024-03-07T07:32:40;135.97;;;43.30;;
20669;SDS011;10494;50.868;4.180;2024-03-07T07:35:07;137.33;;;42.97;;
20669;SDS011;10494;50.868;4.180;2024-03-07T07:37:40;124.17;;;42.80;;
20669;SDS011;10494;50.868;4.180;2024-03-07T07:40:09;135.43;;;43.10;;
20669;SDS011;10494;50.868;4.180;2024-03-07T07:42:39;127.70;;;42.40;;
20669;SDS011;10494;50.868;4.180;2024-03-07T07:45:09;120.90;;;41.07;;
20669;SDS011;10494;50.868;4.180;2024-03-07T07:47:41;110.47;;;41.97;;
20669;SDS011;10494;50.868;4.180;2024-03-07T07:50:14;109.10;;;39.80;;
20669;SDS011;10494;50.868;4.180;2024-03-07T07:52:44;108.30;;;39.43;;
20669;SDS011;10494;50.868;4.180;2024-03-07T07:55:13;103.50;;;38.73;;
20669;SDS011;10494;50.868;4.180;2024-03-07T07:57:49;99.23;;;37.47;;
20669;SDS011;10494;50.868;4.180;2024-03-07T08:00:19;114.23;;;39.53;;
20669;SDS011;10494;50.868;4.180;2024-03-07T08:05:21;97.27;;;37.93;;
20669;SDS011;10494;50.868;4.180;2024-03-07T08:07:58;112.43;;;38.13;;
20669;SDS011;10494;50.868;4.180;2024-03-07T08:10:26;104.73;;;37.90;;
20669;SDS011;10494;50.868;4.180;2024-03-07T08:12:53;108.60;;;40.10;;
20669;SDS011;10494;50.868;4.180;2024-03-07T08:15:20;92.43;;;35.73;;
20669;SDS011;10494;50.868;4.180;2024-03-07T08:17:46;103.23;;;37.80;;
20669;SDS011;10494;50.868;4.180;2024-03-07T08:20:13;94.83;;;36.43;;
20669;SDS011;10494;50.868;4.180;2024-03-07T08:22:41;95.87;;;37.90;;
20669;SDS011;10494;50.868;4.180;2024-03-07T08:25:11;109.50;;;38.83;;
20669;SDS011;10494;50.868;4.180;2024-03-07T08:27:38;102.23;;;37.63;;
20669;SDS011;10494;50.868;4.180;2024-03-07T08:30:04;99.20;;;36.13;;
20669;SDS011;10494;50.868;4.180;2024-03-07T08:32:38;97.10;;;36.40;;
20669;SDS011;10494;50.868;4.180;2024-03-07T08:35:05;91.60;;;36.20;;
20669;SDS011;10494;50.868;4.180;2024-03-07T08:37:44;89.83;;;33.93;;
20669;SDS011;10494;50.868;4.180;2024-03-07T08:40:11;100.20;;;36.97;;
20669;SDS011;10494;50.868;4.180;2024-03-07T08:42:47;95.45;;;37.35;;
20669;SDS011;10494;50.868;4.180;2024-03-07T08:45:15;86.60;;;34.70;;
20669;SDS011;10494;50.868;4.180;2024-03-07T08:47:44;90.07;;;33.13;;
20669;SDS011;10494;50.868;4.180;2024-03-07T08:50:11;80.50;;;31.90;;
20669;SDS011;10494;50.868;4.180;2024-03-07T08:52:38;85.70;;;30.92;;
20669;SDS011;10494;50.868;4.180;2024-03-07T08:55:05;78.75;;;32.00;;
20669;SDS011;10494;50.868;4.180;2024-03-07T08:57:34;81.07;;;31.97;;
20669;SDS011;10494;50.868;4.180;2024-03-07T09:00:00;84.82;;;33.30;;
20669;SDS011;10494;50.868;4.180;2024-03-07T09:02:28;70.40;;;30.38;;
20669;SDS011;10494;50.868;4.180;2024-03-07T09:04:54;77.85;;;32.13;;
20669;SDS011;10494;50.868;4.180;2024-03-07T09:07:20;79.28;;;31.73;;
20669;SDS011;10494;50.868;4.180;2024-03-07T09:09:45;79.57;;;29.45;;
20669;SDS011;10494;50.868;4.180;2024-03-07T09:12:11;75.38;;;31.20;;
20669;SDS011;10494;50.868;4.180;2024-03-07T09:14:37;80.25;;;31.67;;
20669;SDS011;10494;50.868;4.180;2024-03-07T09:17:03;74.82;;;31.10;;
20669;SDS011;10494;50.868;4.180;2024-03-07T09:19:29;78.53;;;31.05;;
20669;SDS011;10494;50.868;4.180;2024-03-07T09:21:56;78.20;;;32.53;;
20669;SDS011;10494;50.868;4.180;2024-03-07T09:24:21;80.15;;;31.15;;
20669;SDS011;10494;50.868;4.180;2024-03-07T09:26:51;75.82;;;31.73;;
20669;SDS011;10494;50.868;4.180;2024-03-07T09:29:17;66.50;;;29.75;;
20669;SDS011;10494;50.868;4.180;2024-03-07T09:31:44;72.47;;;31.98;;
20669;SDS011;10494;50.868;4.180;2024-03-07T09:34:11;71.28;;;30.25;;
20669;SDS011;10494;50.868;4.180;2024-03-07T09:36:37;73.00;;;31.13;;
20669;SDS011;10494;50.868;4.180;2024-03-07T09:39:06;68.43;;;30.75;;
20669;SDS011;10494;50.868;4.180;2024-03-07T09:41:33;74.38;;;30.08;;
20669;SDS011;10494;50.868;4.180;2024-03-07T09:43:59;70.53;;;29.92;;
20669;SDS011;10494;50.868;4.180;2024-03-07T09:46:26;62.13;;;28.83;;
20669;SDS011;10494;50.868;4.180;2024-03-07T09:48:52;64.88;;;28.67;;
20669;SDS011;10494;50.868;4.180;2024-03-07T09:51:19;66.43;;;29.83;;
20669;SDS011;10494;50.868;4.180;2024-03-07T09:53:46;64.57;;;28.88;;
20669;SDS011;10494;50.868;4.180;2024-03-07T09:56:14;65.25;;;29.70;;
20669;SDS011;10494;50.868;4.180;2024-03-07T09:58:48;70.90;;;31.75;;
20669;SDS011;10494;50.868;4.180;2024-03-07T10:01:19;70.13;;;29.33;;
20669;SDS011;10494;50.868;4.180;2024-03-07T10:03:47;64.50;;;27.55;;
20669;SDS011;10494;50.868;4.180;2024-03-07T10:06:13;64.20;;;29.67;;
20669;SDS011;10494;50.868;4.180;2024-03-07T10:08:40;66.50;;;30.20;;
20669;SDS011;10494;50.868;4.180;2024-03-07T10:11:07;58.60;;;28.67;;
20669;SDS011;10494;50.868;4.180;2024-03-07T10:13:34;60.70;;;27.30;;
20669;SDS011;10494;50.868;4.180;2024-03-07T10:16:00;65.50;;;28.38;;
20669;SDS011;10494;50.868;4.180;2024-03-07T10:18:27;67.25;;;29.75;;
20669;SDS011;10494;50.868;4.180;2024-03-07T10:20:55;72.28;;;30.67;;
20669;SDS011;10494;50.868;4.180;2024-03-07T10:23:22;66.38;;;29.70;;
20669;SDS011;10494;50.868;4.180;2024-03-07T10:25:48;64.63;;;29.25;;
20669;SDS011;10494;50.868;4.180;2024-03-07T10:28:19;64.05;;;29.63;;
20669;SDS011;10494;50.868;4.180;2024-03-07T10:30:46;59.30;;;30.88;;
20669;SDS011;10494;50.868;4.180;2024-03-07T10:33:13;65.35;;;30.83;;
20669;SDS011;10494;50.868;4.180;2024-03-07T10:35:39;65.68;;;29.77;;
20669;SDS011;10494;50.868;4.180;2024-03-07T10:38:04;62.03;;;29.08;;
20669;SDS011;10494;50.868;4.180;2024-03-07T10:40:36;59.33;;;30.33;;
20669;SDS011;10494;50.868;4.180;2024-03-07T10:43:07;62.42;;;30.00;;
20669;SDS011;10494;50.868;4.180;2024-03-07T10:45:37;63.03;;;31.85;;
20669;SDS011;10494;50.868;4.180;2024-03-07T10:48:17;65.90;;;31.58;;
20669;SDS011;10494;50.868;4.180;2024-03-07T10:59:30;66.55;;;29.70;;
20669;SDS011;10494;50.868;4.180;2024-03-07T11:04:29;57.25;;;27.45;;
20669;SDS011;10494;50.868;4.180;2024-03-07T11:06:56;61.08;;;28.30;;
20669;SDS011;10494;50.868;4.180;2024-03-07T11:09:24;57.72;;;28.83;;
20669;SDS011;10494;50.868;4.180;2024-03-07T11:11:54;56.28;;;26.48;;
20669;SDS011;10494;50.868;4.180;2024-03-07T11:14:21;52.35;;;25.75;;
20669;SDS011;10494;50.868;4.180;2024-03-07T11:16:48;56.40;;;27.77;;
20669;SDS011;10494;50.868;4.180;2024-03-07T11:19:27;56.15;;;27.75;;
20669;SDS011;10494;50.868;4.180;2024-03-07T11:21:56;63.35;;;28.90;;
20669;SDS011;10494;50.868;4.180;2024-03-07T11:24:26;51.88;;;26.92;;
20669;SDS011;10494;50.868;4.180;2024-03-07T11:26:55;51.95;;;25.95;;
20669;SDS011;10494;50.868;4.180;2024-03-07T11:32:12;58.25;;;27.20;;
20669;SDS011;10494;50.868;4.180;2024-03-07T11:34:39;60.78;;;29.83;;
20669;SDS011;10494;50.868;4.180;2024-03-07T11:37:06;52.70;;;26.02;;
20669;SDS011;10494;50.868;4.180;2024-03-07T11:39:42;48.03;;;24.55;;
20669;SDS011;10494;50.868;4.180;2024-03-07T11:42:25;49.25;;;26.00;;
20669;SDS011;10494;50.868;4.180;2024-03-07T11:44:51;50.92;;;25.67;;
20669;SDS011;10494;50.868;4.180;2024-03-07T11:47:21;55.47;;;26.00;;
20669;SDS011;10494;50.868;4.180;2024-03-07T11:49:49;51.63;;;26.00;;
20669;SDS011;10494;50.868;4.180;2024-03-07T11:52:17;46.15;;;23.95;;
20669;SDS011;10494;50.868;4.180;2024-03-07T11:54:43;50.58;;;24.85;;
20669;SDS011;10494;50.868;4.180;2024-03-07T11:57:15;51.53;;;24.13;;
20669;SDS011;10494;50.868;4.180;2024-03-07T11:59:44;53.05;;;27.05;;
20669;SDS011;10494;50.868;4.180;2024-03-07T12:02:12;47.17;;;24.30;;
20669;SDS011;10494;50.868;4.180;2024-03-07T12:04:42;45.50;;;23.63;;
20669;SDS011;10494;50.868;4.180;2024-03-07T12:07:08;51.83;;;24.05;;
20669;SDS011;10494;50.868;4.180;2024-03-07T12:09:38;47.50;;;24.65;;
20669;SDS011;10494;50.868;4.180;2024-03-07T12:12:04;49.85;;;25.30;;
20669;SDS011;10494;50.868;4.180;2024-03-07T12:14:31;48.40;;;23.20;;
20669;SDS011;10494;50.868;4.180;2024-03-07T12:16:59;49.15;;;22.80;;
20669;SDS011;10494;50.868;4.180;2024-03-07T12:19:25;42.22;;;21.95;;
20669;SDS011;10494;50.868;4.180;2024-03-07T12:21:56;41.00;;;22.42;;
20669;SDS011;10494;50.868;4.180;2024-03-07T12:24:22;40.67;;;21.08;;
20669;SDS011;10494;50.868;4.180;2024-03-07T12:26:48;41.25;;;22.52;;
20669;SDS011;10494;50.868;4.180;2024-03-07T12:29:13;44.75;;;21.50;;
20669;SDS011;10494;50.868;4.180;2024-03-07T12:31:41;42.83;;;20.67;;
20669;SDS011;10494;50.868;4.180;2024-03-07T12:34:07;36.50;;;21.05;;
20669;SDS011;10494;50.868;4.180;2024-03-07T12:36:36;36.78;;;20.50;;
20669;SDS011;10494;50.868;4.180;2024-03-07T12:39:32;35.40;;;20.00;;
20669;SDS011;10494;50.868;4.180;2024-03-07T12:42:11;41.30;;;20.55;;
20669;SDS011;10494;50.868;4.180;2024-03-07T12:44:40;40.15;;;20.75;;
20669;SDS011;10494;50.868;4.180;2024-03-07T12:47:08;41.55;;;21.20;;
20669;SDS011;10494;50.868;4.180;2024-03-07T12:49:38;43.42;;;22.02;;
20669;SDS011;10494;50.868;4.180;2024-03-07T12:52:05;52.17;;;25.23;;
20669;SDS011;10494;50.868;4.180;2024-03-07T12:54:33;43.63;;;23.20;;
20669;SDS011;10494;50.868;4.180;2024-03-07T12:56:59;44.33;;;23.08;;
20669;SDS011;10494;50.868;4.180;2024-03-07T12:59:25;43.90;;;20.42;;
20669;SDS011;10494;50.868;4.180;2024-03-07T13:01:50;41.92;;;21.35;;
20669;SDS011;10494;50.868;4.180;2024-03-07T13:04:16;44.05;;;22.33;;
20669;SDS011;10494;50.868;4.180;2024-03-07T13:06:42;46.33;;;24.13;;
20669;SDS011;10494;50.868;4.180;2024-03-07T13:09:12;43.78;;;23.02;;
20669;SDS011;10494;50.868;4.180;2024-03-07T13:11:38;41.72;;;21.25;;
20669;SDS011;10494;50.868;4.180;2024-03-07T13:14:11;46.65;;;23.35;;
20669;SDS011;10494;50.868;4.180;2024-03-07T13:16:37;42.70;;;22.25;;
20669;SDS011;10494;50.868;4.180;2024-03-07T13:19:03;42.60;;;22.63;;
20669;SDS011;10494;50.868;4.180;2024-03-07T13:21:30;41.15;;;21.33;;
20669;SDS011;10494;50.868;4.180;2024-03-07T13:23:56;45.40;;;21.35;;
20669;SDS011;10494;50.868;4.180;2024-03-07T13:26:23;42.50;;;23.08;;
20669;SDS011;10494;50.868;4.180;2024-03-07T13:28:51;39.25;;;21.00;;
20669;SDS011;10494;50.868;4.180;2024-03-07T13:31:18;43.65;;;22.13;;
20669;SDS011;10494;50.868;4.180;2024-03-07T13:33:44;38.75;;;21.45;;
20669;SDS011;10494;50.868;4.180;2024-03-07T13:36:11;42.45;;;22.17;;
20669;SDS011;10494;50.868;4.180;2024-03-07T13:38:39;37.97;;;20.85;;
20669;SDS011;10494;50.868;4.180;2024-03-07T13:41:05;34.17;;;19.30;;
20669;SDS011;10494;50.868;4.180;2024-03-07T13:43:31;34.95;;;20.63;;
20669;SDS011;10494;50.868;4.180;2024-03-07T13:46:00;36.75;;;20.65;;
20669;SDS011;10494;50.868;4.180;2024-03-07T13:48:25;41.10;;;22.02;;
20669;SDS011;10494;50.868;4.180;2024-03-07T13:50:51;42.53;;;22.00;;
20669;SDS011;10494;50.868;4.180;2024-03-07T13:53:18;40.28;;;21.98;;
20669;SDS011;10494;50.868;4.180;2024-03-07T14:01:32;37.22;;;19.88;;
20669;SDS011;10494;50.868;4.180;2024-03-07T14:07:12;41.33;;;20.52;;
20669;SDS011;10494;50.868;4.180;2024-03-07T14:21:42;36.38;;;19.60;;
20669;SDS011;10494;50.868;4.180;2024-03-07T14:29:54;34.13;;;19.08;;
20669;SDS011;10494;50.868;4.180;2024-03-07T14:32:47;36.03;;;19.77;;
20669;SDS011;10494;50.868;4.180;2024-03-07T14:35:24;41.60;;;20.25;;
20669;SDS011;10494;50.868;4.180;2024-03-07T14:40:38;37.17;;;19.83;;
20669;SDS011;10494;50.868;4.180;2024-03-07T14:43:04;37.75;;;19.50;;
20669;SDS011;10494;50.868;4.180;2024-03-07T14:45:34;34.95;;;18.20;;
20669;SDS011;10494;50.868;4.180;2024-03-07T14:48:02;29.90;;;16.73;;
20669;SDS011;10494;50.868;4.180;2024-03-07T14:50:29;31.48;;;17.83;;
20669;SDS011;10494;50.868;4.180;2024-03-07T14:52:57;34.83;;;18.15;;
20669;SDS011;10494;50.868;4.180;2024-03-07T14:55:24;28.58;;;16.35;;
20669;SDS011;10494;50.868;4.180;2024-03-07T14:57:50;31.60;;;17.23;;
20669;SDS011;10494;50.868;4.180;2024-03-07T15:00:15;31.38;;;17.85;;
20669;SDS011;10494;50.868;4.180;2024-03-07T15:02:47;30.23;;;16.88;;
20669;SDS011;10494;50.868;4.180;2024-03-07T15:05:14;28.25;;;16.00;;
20669;SDS011;10494;50.868;4.180;2024-03-07T15:07:41;26.80;;;16.10;;